Jemez Springs, Valles Caldera, New Mexico Weather observations

Data are for 10 minute period ending at time listed.
 Day   Time   Solar   Ave.   Ave.  Ave.  Vector  Max.   Baro.   Total    
  of    of     Rad.   Air    Rel.  Wind   Wind   Wind  Press.  Precip.   
Year   Day            Temp.  Hum.  Speed  Dir.   Gust                    
2014   (MST)  Kw/m2    F      %     mph   deg.    mph    mb.     in.     
-------------------------------------------------------------------------
 112   21:30   0.00   66.5    23    3.7   239     7.2   802.8    0.00 
 112   21:40   0.00   65.5    24    1.0   359     3.0   802.7    0.00 
 112   21:50   0.00   64.4    26    1.1    27     4.2   802.7    0.00 
 112   22:00   0.00   63.2    28    3.3    21     4.8   802.6    0.00 
 112   22:10   0.00   62.0    30    1.5   334     3.6   802.7    0.00 
 112   22:20   0.00   61.3    30    3.3    28     6.6   802.7    0.00 
 112   22:30   0.00   61.6    29    4.5    13     6.6   802.5    0.00 
 112   22:40   0.00   61.8    29    3.0    17     6.0   802.4    0.00 
 112   22:50   0.00   60.7    30    3.9    31     7.2   802.3    0.00 
 112   23:00   0.00   60.4    31    4.1    31     7.5   802.3    0.00 
 112   23:10   0.00   59.5    32    2.5     9     5.4   802.4    0.00 
 112   23:20   0.00   58.5    32    2.8    19     5.4   802.5    0.00 
 112   23:30   0.00   57.4    34    2.5    21     6.0   802.5    0.00 
 112   23:40   0.00   57.5    34    2.8     9     5.4   802.5    0.00 
 112   23:50   0.00   59.4    29    4.4   267    11.3   802.6    0.00 
 113    0:00   0.00   64.6    21    5.8   146    12.5   802.6    0.00 
 113    0:10   0.00   64.3    22    2.3   221     6.0   802.7    0.00 
 113    0:20   0.00   63.3    23    3.2    62     6.6   802.6    0.00 
 113    0:30   0.00   63.6    23    3.1    66     4.8   802.5    0.00 
 113    0:40   0.00   62.0    24    3.5   109     6.0   802.4    0.00 
 113    0:50   0.00   61.4    25    2.0   112     6.6   802.4    0.00 
 113    1:00   0.00   59.8    27    1.7    30     4.8   802.3    0.00 
 113    1:10   0.00   59.1    28    3.1   318     6.0   802.3    0.00 
 113    1:20   0.00   58.4    30    2.1   360     4.2   802.3    0.00 
 113    1:30   0.00   57.0    32    3.1    16     4.8   802.1    0.00 
 113    1:40   0.00   57.1    31    1.6    30     4.2   802.0    0.00 
 113    1:50   0.00   57.0    32    2.4     7     4.2   801.9    0.00 
 113    2:00   0.00   56.6    32    2.5    38     4.2   801.9    0.00 
 113    2:10   0.00   55.8    34    2.0    24     4.8   801.9    0.00 
 113    2:20   0.00   55.4    35    2.9    31     4.8   802.0    0.00 
 113    2:30   0.00   54.6    36    2.6    22     4.8   802.1    0.00 
 113    2:40   0.00   54.2    37    2.2    33     3.9   802.1    0.00 
 113    2:50   0.00   54.0    37    2.0   348     4.8   802.1    0.00 
 113    3:00   0.00   53.6    38    3.6    32     5.4   802.1    0.00 
 113    3:10   0.00   53.5    37    3.2    23     7.8   802.2    0.00 
 113    3:20   0.00   53.2    37    3.7    27     7.2   802.2    0.00 
 113    3:30   0.00   53.2    37    2.4    18     5.4   802.2    0.00 
 113    3:40   0.00   52.7    38    2.7     7     6.0   802.4    0.00 
 113    3:50   0.00   52.5    37    4.5    20     6.6   802.4    0.00 
 113    4:00   0.00   51.5    39    2.2    30     3.9   802.5    0.00 
 113    4:10   0.00   50.4    41    2.1    10     3.6   802.5    0.00 
 113    4:20   0.00   50.0    40    3.7    15     7.2   802.5    0.00 
 113    4:30   0.00   50.5    39    3.2    32     5.4   802.5    0.00 
 113    4:40   0.00   50.3    39    4.0    14     7.2   802.6    0.00 
 113    4:50   0.00   49.8    40    3.7    32     6.0   802.6    0.00 
 113    5:00   0.00   49.9    40    3.0    42     6.0   802.6    0.00 
 113    5:10   0.00   49.4    41    2.6    39     6.0   802.6    0.00 
 113    5:20   0.00   49.5    40    3.3     6     6.6   802.7    0.00 
 113    5:30   0.00   49.7    40    1.9    51     4.2   802.8    0.00 
 113    5:40   0.01   49.2    41    2.5     3     4.2   802.8    0.00 
 113    5:50   0.02   48.9    42    2.0    40     4.8   802.9    0.00 
 113    6:00   0.03   48.9    42    3.6    29     7.2   803.1    0.00 
 113    6:10   0.04   49.9    41    2.7    52     6.0   803.1    0.00 
 113    6:20   0.06   50.5    40    3.7    40     7.8   803.1    0.00 
 113    6:30   0.06   51.1    41    2.8   178     4.8   803.1    0.00 
 113    6:40   0.07   51.9    39    3.3   132     6.0   803.1    0.00 
 113    6:50   0.22   55.3    33    3.9   109     7.2   803.1    0.00 
 113    7:00   0.30   58.7    29    3.7   148     6.6   803.2    0.00 
 113    7:10   0.34   59.7    27    4.3   141     7.2   803.2    0.00 
 113    7:20   0.39   61.1    26    3.5   127     7.8   803.2    0.00 
 113    7:30   0.42   60.8    26    4.3   142     7.8   803.2    0.00 
 113    7:40   0.46   61.2    26    4.7    93    11.9   803.3    0.00 
 113    7:50   0.50   62.0    25    4.6    20     9.0   803.2    0.00 
 113    8:00   0.54   61.4    25    7.1   174    14.3   803.2    0.00 
 113    8:10   0.58   61.3    26    6.9   178    14.3   803.1    0.00 
 113    8:20   0.61   61.9    25    5.6    19    17.3   803.1    0.00 
 113    8:30   0.65   62.5    25    7.6   219    14.3   802.9    0.00 
 113    8:40   0.69   62.3    24    6.2   159    11.3   802.8    0.00 
 113    8:50   0.74   62.0    25    9.2   143    20.0   802.7    0.00 
 113    9:00   0.77   63.0    23    6.4   150    15.5   802.7    0.00 
 113    9:10   0.81   63.1    22    7.1   155    19.7   802.6    0.00 
 113    9:20   0.84   63.4    23    4.8   111    10.8   802.6    0.00 
 113    9:30   0.87   63.5    22    9.6   155    19.7   802.3    0.00 
 113    9:40   0.86   63.0    22    8.5   158    25.0   802.4    0.00 
 113    9:50   0.93   62.9    22   13.5   160    35.2   802.2    0.00 
 113   10:00   0.95   63.1    22    9.1   154    18.5   802.4    0.00 
 113   10:10   0.89   63.3    22   11.4   169    23.9   802.3    0.00 
 113   10:20   1.01   63.6    21   10.3   149    23.9   802.2    0.00 
 113   10:30   1.07   64.0    20   12.1   159    30.4   802.1    0.00 
 113   10:40   1.08   63.8    20   14.1   155    24.5   802.0    0.00 
 113   10:50   1.06   64.4    19    9.0   158    17.9   802.0    0.00 
 113   11:00   1.06   64.8    18   10.9   162    21.5   802.0    0.00 
 113   11:10   1.13   65.3    18   11.1   157    24.5   801.8    0.00 
 113   11:20   0.71   64.5    19    9.2   160    24.5   801.7    0.00 
 113   11:30   1.04   65.5    17    9.0   152    22.7   801.4    0.00 
 113   11:40   0.89   65.8    17   12.5   173    22.7   801.3    0.00 
 113   11:50   0.88   66.3    16    7.7   172    14.9   801.1    0.00 
 113   12:00   0.65   65.9    16   11.1   175    26.8   801.0    0.00 
 113   12:10   0.48   65.8    16    5.0   106    17.9   801.0    0.00 
 113   12:20   0.68   65.8    16    9.1   176    16.7   800.9    0.00 
 113   12:30   0.86   66.7    15   10.0   164    20.3   800.8    0.00 
 113   12:40   0.41   65.4    16    8.2   167    23.9   800.6    0.00 
 113   12:50   0.65   66.3    16    9.6    87    24.5   800.5    0.00 
 113   13:00   0.83   66.9    15    7.9   149    15.5   800.5    0.00 
 113   13:10   0.71   66.7    15   11.5   147    24.5   800.3    0.00 
 113   13:20   0.55   67.0    15    5.3   126    12.5   800.4    0.00 
 113   13:30   0.43   66.5    15    6.5   140    14.3   800.3    0.00 
 113   13:40   0.35   64.8    16    9.8   188    24.5   800.7    0.00 
 113   13:50   0.37   64.2    17    7.4   195    17.9   800.2    0.00 
 113   14:00   0.27   65.2    16    6.5   171    15.5   800.1    0.00 
 113   14:10   0.26   64.5    16   12.2   206    25.0   800.1    0.00 
 113   14:20   0.35   64.3    15    7.3    86    21.5   799.9    0.00 
 113   14:30   0.34   65.1    15    7.8   142    16.1   799.8    0.00 
 113   14:40   0.28   65.1    15    6.4   178    17.3   799.6    0.00 
 113   14:50   0.15   64.6    15    6.3   145    18.5   799.7    0.00 
 113   15:00   0.14   64.2    14    5.0    69    10.8   799.8    0.00 
 113   15:10   0.15   63.9    14    7.6    55    13.7   799.9    0.00 
 113   15:20   0.18   62.9    15    7.5   144    21.5   800.3    0.00 
 113   15:30   0.13   61.9    16    8.9   241    21.5   800.7    0.00 
 113   15:40   0.13   61.5    16    7.6   212    14.9   800.7    0.00 
 113   15:50   0.17   61.4    16    5.2    95    13.1   800.8    0.00 
 113   16:00   0.21   61.3    18    7.9   102    17.9   801.3    0.00 
 113   16:10   0.32   60.2    22    6.8   101    17.9   801.3    0.00 
 113   16:20   0.26   59.1    25    8.7    47    20.3   801.7    0.00 
 113   16:30   0.25   57.6    28   11.7    38    22.1   801.6    0.00 
 113   16:40   0.33   57.4    28   10.2    52    20.9   801.6    0.00 
 113   16:50   0.39   57.3    28   12.6    47    26.2   801.5    0.00 
 113   17:00   0.28   57.6    27   11.6    46    23.3   801.6    0.00 
 113   17:10   0.21   56.6    26   11.3    47    19.7   801.6    0.00 
 113   17:20   0.15   56.8    25   10.6    42    20.9   801.5    0.00 
 113   17:30   0.06   56.6    24   11.6    48    26.2   801.4    0.00 
 113   17:40   0.03   56.3    24    8.4    47    22.1   801.6    0.00 
 113   17:50   0.03   56.3    23    6.5    55    13.7   801.7    0.00 
 113   18:00   0.05   56.3    22    7.0    33    15.5   801.8    0.00 
 113   18:10   0.04   56.1    23    8.4    30    22.1   801.9    0.00 
 113   18:20   0.03   56.0    21    7.7    53    14.3   802.0    0.00 
 113   18:30   0.03   55.9    20    8.1    46    18.5   802.1    0.00 
 113   18:40   0.01   55.6    18    8.2    48    18.5   802.2    0.00 
 113   18:50   0.01   55.2    18    7.9    41    16.1   802.4    0.00 
 113   19:00   0.00   54.9    18    7.2    42    16.1   802.4    0.00 
 113   19:10   0.00   54.3    18    4.6    35    11.9   802.5    0.00 
 113   19:20   0.00   54.0    18    6.7    34    16.1   802.5    0.00 
 113   19:30   0.00   53.6    19    5.1    19    12.5   802.7    0.00 
 113   19:40   0.00   53.7    18    7.8    28    16.1   802.8    0.00 
 113   19:50   0.00   53.6    18    8.6    30    16.1   803.0    0.00 
 113   20:00   0.00   53.5    18    7.1    33    14.9   803.3    0.00 
 113   20:10   0.00   53.3    17    8.0    44    14.3   803.6    0.00 
 113   20:20   0.00   53.2    17    7.3    34    14.9   803.7    0.00 
 113   20:30   0.00   52.6    18    7.3    48    14.9   803.8    0.00 
 113   20:40   0.00   52.4    18    5.9    54    11.9   803.8    0.00 
 113   20:50   0.00   51.8    19    6.4    55    13.7   803.9    0.00 
 113   21:00   0.00   51.7    19    6.8    59    13.1   804.2    0.00 
 113   21:10   0.00   51.3    20    7.7    52    14.9   804.3    0.00 
 113   21:20   0.00   51.0    20    8.0    54    17.3   804.4    0.00 

Return to Jemez Springs, Valles Caldera graphs page.


Western Regional Climate Center,wrcc@dri.edu